createdAt,value
2023-03-03T00:00:42.440Z,46.40
2023-03-03T00:03:21.777Z,41.37
2023-03-03T00:05:48.877Z,47.37
2023-03-03T00:08:15.806Z,41.63
2023-03-03T00:10:41.943Z,42.47
2023-03-03T00:13:20.245Z,42.23
2023-03-03T00:15:47.850Z,47.20
2023-03-03T00:18:34.485Z,43.53
2023-03-03T00:21:02.256Z,42.63
2023-03-03T00:23:35.978Z,49.13
2023-03-03T00:26:05.188Z,40.30
2023-03-03T00:28:43.692Z,42.90
2023-03-03T00:31:19.596Z,40.90
2023-03-03T00:33:53.917Z,41.20
2023-03-03T00:36:27.961Z,44.17
2023-03-03T00:38:57.270Z,46.27
2023-03-03T00:41:26.100Z,44.93
2023-03-03T00:43:53.762Z,42.20
2023-03-03T00:46:22.298Z,44.03
2023-03-03T00:48:50.304Z,45.33
2023-03-03T00:51:22.477Z,45.47
2023-03-03T00:53:50.124Z,41.90
2023-03-03T00:56:16.598Z,46.10
2023-03-03T00:58:47.393Z,46.67
2023-03-03T01:01:17.260Z,43.33
2023-03-03T01:03:47.849Z,45.27
2023-03-03T01:06:14.602Z,40.63
2023-03-03T01:08:41.041Z,46.03
2023-03-03T01:11:15.833Z,39.67
2023-03-03T01:13:46.448Z,41.93
2023-03-03T01:16:12.903Z,48.00
2023-03-03T01:18:41.130Z,43.17
2023-03-03T01:21:08.662Z,49.03
2023-03-03T01:23:35.387Z,47.40
2023-03-03T01:26:01.742Z,45.63
2023-03-03T01:28:28.163Z,46.80
2023-03-03T01:30:54.438Z,42.57
2023-03-03T01:33:20.951Z,39.63
2023-03-03T01:35:47.942Z,46.07
2023-03-03T01:38:15.243Z,45.40
2023-03-03T01:40:41.556Z,43.80
2023-03-03T01:43:08.028Z,43.17
2023-03-03T01:45:42.935Z,49.37
2023-03-03T01:48:36.860Z,43.90
2023-03-03T01:51:22.338Z,45.63
2023-03-03T01:53:52.228Z,38.93
2023-03-03T01:56:18.605Z,46.87
2023-03-03T01:58:52.394Z,38.60
2023-03-03T02:01:22.303Z,42.20
2023-03-03T02:03:49.844Z,35.03
2023-03-03T02:06:19.524Z,36.13
2023-03-03T02:08:53.378Z,34.83
2023-03-03T02:11:21.720Z,31.27
2023-03-03T02:13:48.353Z,30.50
2023-03-03T02:16:15.719Z,33.80
2023-03-03T02:18:42.405Z,31.33
2023-03-03T02:21:16.021Z,33.43
2023-03-03T02:23:59.479Z,33.90
2023-03-03T02:26:28.276Z,34.67
2023-03-03T02:29:00.248Z,29.23
2023-03-03T02:31:29.965Z,33.57
2023-03-03T02:33:57.044Z,30.57
2023-03-03T02:36:33.039Z,27.20
2023-03-03T02:39:19.609Z,28.67
2023-03-03T02:42:04.690Z,25.93
2023-03-03T02:44:37.968Z,27.60
2023-03-03T02:47:04.704Z,31.97
2023-03-03T02:49:33.658Z,29.03
2023-03-03T02:52:01.595Z,27.07
2023-03-03T02:54:30.244Z,29.53
2023-03-03T02:56:58.600Z,25.83
2023-03-03T02:59:26.716Z,25.63
2023-03-03T03:01:54.919Z,33.47
2023-03-03T03:04:26.442Z,28.10
2023-03-03T03:06:54.391Z,28.70
2023-03-03T03:09:24.187Z,30.50
2023-03-03T03:11:52.030Z,29.73
2023-03-03T03:14:22.662Z,32.77
2023-03-03T03:16:49.395Z,39.93
2023-03-03T03:19:15.866Z,38.10
2023-03-03T03:21:43.602Z,47.17
2023-03-03T03:24:10.738Z,54.70
2023-03-03T03:26:40.937Z,46.90
2023-03-03T03:29:07.791Z,48.97
2023-03-03T03:31:34.089Z,47.50
2023-03-03T03:34:02.859Z,50.30
2023-03-03T03:36:29.685Z,52.17
2023-03-03T03:38:56.542Z,50.80
2023-03-03T03:41:22.713Z,56.70
2023-03-03T03:43:49.290Z,47.87
2023-03-03T03:46:15.839Z,48.27
2023-03-03T03:48:43.192Z,41.23
2023-03-03T03:51:12.151Z,39.43
2023-03-03T03:53:39.692Z,40.33
2023-03-03T03:56:06.320Z,38.67
2023-03-03T03:58:33.334Z,38.13
2023-03-03T04:01:05.044Z,39.60
2023-03-03T04:03:33.889Z,44.77
2023-03-03T04:06:01.153Z,43.43
2023-03-03T04:08:27.864Z,42.40
2023-03-03T04:10:54.239Z,45.23
2023-03-03T04:13:21.323Z,35.93
2023-03-03T04:15:47.678Z,32.17
2023-03-03T04:18:14.319Z,31.70
2023-03-03T04:20:41.184Z,36.70
2023-03-03T04:23:08.013Z,39.77
2023-03-03T04:25:34.274Z,38.03
2023-03-03T04:28:03.951Z,36.40
2023-03-03T04:30:32.612Z,39.40
2023-03-03T04:32:59.353Z,35.27
2023-03-03T04:35:26.852Z,36.50
2023-03-03T04:37:53.662Z,35.97
2023-03-03T04:40:20.288Z,40.50
2023-03-03T04:42:49.627Z,34.00
2023-03-03T04:45:16.145Z,38.67
2023-03-03T04:47:44.612Z,34.13
2023-03-03T04:50:11.729Z,30.43
2023-03-03T04:52:38.426Z,27.30
2023-03-03T04:55:09.311Z,24.63
2023-03-03T04:57:37.454Z,24.17
2023-03-03T05:00:05.905Z,26.83
2023-03-03T05:02:32.598Z,30.40
2023-03-03T05:04:59.477Z,26.77
2023-03-03T05:07:26.035Z,24.43
2023-03-03T05:09:52.196Z,27.70
2023-03-03T05:12:19.443Z,29.70
2023-03-03T05:14:45.776Z,24.30
2023-03-03T05:17:12.506Z,22.77
2023-03-03T05:19:38.856Z,24.73
2023-03-03T05:22:05.029Z,25.30
2023-03-03T05:24:31.584Z,25.73
2023-03-03T05:26:57.964Z,27.37
2023-03-03T05:29:24.429Z,24.80
2023-03-03T05:31:50.609Z,25.93
2023-03-03T05:34:17.123Z,20.53
2023-03-03T05:36:43.487Z,21.10
2023-03-03T05:39:10.239Z,22.80
2023-03-03T05:41:36.723Z,23.17
2023-03-03T05:44:03.761Z,27.17
2023-03-03T05:46:30.179Z,24.30
2023-03-03T05:48:57.024Z,22.30
2023-03-03T05:51:23.342Z,28.00
2023-03-03T05:53:50.209Z,26.43
2023-03-03T05:56:17.071Z,25.27
2023-03-03T05:58:43.809Z,23.20
2023-03-03T06:01:11.090Z,21.27
2023-03-03T06:03:38.113Z,24.63
2023-03-03T06:06:04.635Z,21.77
2023-03-03T06:08:32.019Z,22.20
2023-03-03T06:10:58.548Z,25.03
2023-03-03T06:13:25.292Z,21.90
2023-03-03T06:15:51.640Z,20.03
2023-03-03T06:18:18.317Z,20.07
2023-03-03T06:20:44.566Z,20.87
2023-03-03T06:23:11.035Z,19.00
2023-03-03T06:25:38.591Z,17.50
2023-03-03T06:28:05.128Z,20.30
2023-03-03T06:30:31.617Z,21.97
2023-03-03T06:32:58.339Z,24.43
2023-03-03T06:35:24.529Z,26.23
2023-03-03T06:37:51.477Z,22.80
2023-03-03T06:40:17.801Z,20.83
2023-03-03T06:42:44.353Z,19.33
2023-03-03T06:45:11.022Z,16.40
2023-03-03T06:47:37.731Z,15.97
2023-03-03T06:50:04.392Z,15.13
2023-03-03T06:52:30.907Z,16.90
2023-03-03T06:55:00.142Z,13.67
2023-03-03T06:57:32.152Z,18.17
2023-03-03T07:00:19.867Z,14.37
2023-03-03T07:02:53.039Z,13.33
2023-03-03T07:05:19.583Z,18.83
2023-03-03T07:07:46.164Z,12.33
2023-03-03T07:10:23.087Z,14.20
2023-03-03T07:12:49.993Z,17.30
2023-03-03T07:15:35.186Z,15.37
2023-03-03T07:18:02.652Z,15.57
2023-03-03T07:20:36.081Z,15.33
2023-03-03T07:23:20.290Z,16.03
2023-03-03T07:25:47.824Z,19.47
2023-03-03T07:28:29.362Z,14.70
2023-03-03T07:30:57.448Z,17.50
2023-03-03T07:33:28.233Z,21.00
2023-03-03T07:35:57.176Z,16.37
2023-03-03T07:38:45.076Z,20.40
2023-03-03T07:41:20.284Z,19.70
2023-03-03T07:44:09.425Z,20.47
2023-03-03T07:46:44.430Z,16.03
2023-03-03T07:49:35.063Z,19.70
2023-03-03T07:52:22.774Z,22.97
2023-03-03T07:54:50.033Z,21.67
2023-03-03T07:57:50.927Z,25.30
2023-03-03T08:00:17.461Z,19.23
2023-03-03T08:02:51.467Z,22.03
2023-03-03T08:05:47.669Z,20.03
2023-03-03T08:08:17.255Z,18.30
2023-03-03T08:10:48.119Z,22.03
2023-03-03T08:13:21.691Z,19.63
2023-03-03T08:16:02.783Z,23.77
2023-03-03T08:18:35.466Z,20.87
2023-03-03T08:21:24.020Z,22.67
2023-03-03T08:23:52.808Z,21.63
2023-03-03T08:26:21.242Z,29.43
2023-03-03T08:28:47.796Z,24.77
2023-03-03T08:31:24.888Z,25.60
2023-03-03T08:33:58.371Z,27.70
2023-03-03T08:36:25.078Z,23.67
2023-03-03T08:38:52.152Z,25.00
2023-03-03T08:41:18.617Z,30.30
2023-03-03T08:43:44.978Z,22.30
2023-03-03T08:46:12.155Z,25.07
2023-03-03T08:48:40.494Z,20.60
2023-03-03T08:51:32.943Z,20.30
2023-03-03T08:53:59.993Z,22.53
2023-03-03T08:56:26.218Z,22.07
2023-03-03T08:59:02.219Z,19.00
2023-03-03T09:01:32.043Z,18.37
2023-03-03T09:03:59.225Z,19.93
2023-03-03T09:06:25.665Z,18.60
2023-03-03T09:08:54.298Z,16.07
2023-03-03T09:11:27.064Z,18.60
2023-03-03T09:14:27.401Z,20.83
2023-03-03T09:16:56.140Z,19.30
2023-03-03T09:19:22.768Z,16.20
2023-03-03T09:21:51.460Z,20.70
2023-03-03T09:24:35.497Z,19.33
2023-03-03T09:27:02.397Z,19.53
2023-03-03T09:29:30.952Z,21.93
2023-03-03T09:32:08.211Z,21.23
2023-03-03T09:34:42.412Z,21.40
2023-03-03T09:37:22.551Z,20.63
2023-03-03T09:39:55.070Z,20.00
2023-03-03T09:42:59.975Z,21.73
2023-03-03T09:45:45.524Z,18.33
2023-03-03T09:48:22.328Z,18.83
2023-03-03T09:50:54.975Z,22.47
2023-03-03T09:53:50.859Z,18.23
2023-03-03T09:56:33.331Z,20.27
2023-03-03T09:59:29.790Z,20.03
2023-03-03T10:02:33.768Z,20.87
2023-03-03T10:05:14.432Z,19.97
2023-03-03T10:07:59.833Z,20.87
2023-03-03T10:10:36.588Z,21.40
2023-03-03T10:13:36.775Z,19.90
2023-03-03T10:16:31.482Z,20.03
2023-03-03T10:19:01.780Z,20.33
2023-03-03T10:21:36.606Z,19.37
2023-03-03T10:24:27.980Z,20.67
2023-03-03T10:27:13.752Z,22.57
2023-03-03T10:29:40.682Z,23.17
2023-03-03T10:32:32.245Z,24.13
2023-03-03T10:35:31.567Z,20.47
2023-03-03T10:38:22.093Z,23.00
2023-03-03T10:41:28.082Z,22.27
2023-03-03T10:43:57.877Z,28.73
2023-03-03T10:46:54.519Z,24.73
2023-03-03T10:49:32.361Z,21.97
2023-03-03T10:52:02.078Z,23.57
2023-03-03T10:54:56.390Z,20.97
2023-03-03T10:57:55.905Z,23.83
2023-03-03T11:00:30.475Z,21.30
2023-03-03T11:03:31.002Z,22.33
2023-03-03T11:06:00.390Z,24.37
2023-03-03T11:08:34.586Z,23.17
2023-03-03T11:11:21.112Z,23.17
2023-03-03T11:14:10.344Z,29.30
2023-03-03T11:16:46.553Z,26.33
2023-03-03T11:19:35.064Z,24.73
2023-03-03T11:22:28.581Z,22.67
2023-03-03T11:25:11.172Z,26.37
2023-03-03T11:27:40.133Z,24.47
2023-03-03T11:30:06.556Z,27.80
2023-03-03T11:32:45.047Z,23.13
2023-03-03T11:35:23.845Z,26.87
2023-03-03T11:38:05.302Z,25.80
2023-03-03T11:40:45.180Z,23.30
2023-03-03T11:43:44.180Z,23.93
2023-03-03T11:46:31.497Z,24.30
2023-03-03T11:49:21.510Z,24.07
2023-03-03T11:52:06.740Z,20.70
2023-03-03T11:54:50.762Z,20.37
2023-03-03T11:57:36.225Z,24.97
2023-03-03T12:00:15.465Z,19.53
2023-03-03T12:03:03.915Z,24.83
2023-03-03T12:06:01.549Z,21.27
2023-03-03T12:09:08.571Z,23.50
2023-03-03T12:11:43.739Z,27.57
2023-03-03T12:14:55.582Z,22.27
2023-03-03T12:17:55.046Z,20.17
2023-03-03T12:21:11.396Z,20.90
2023-03-03T12:24:24.596Z,26.07
2023-03-03T12:27:34.946Z,19.17
2023-03-03T12:30:15.492Z,21.63
2023-03-03T12:33:02.835Z,20.67
2023-03-03T12:35:52.665Z,15.70
2023-03-03T12:38:41.119Z,19.47
2023-03-03T12:42:04.428Z,19.17
2023-03-03T12:45:14.937Z,18.77
2023-03-03T12:48:01.039Z,18.97
2023-03-03T12:51:39.116Z,17.53
2023-03-03T12:55:19.838Z,18.70
2023-03-03T12:58:24.938Z,17.57
2023-03-03T13:01:35.602Z,18.80
2023-03-03T13:04:51.325Z,15.13
2023-03-03T13:08:39.320Z,15.53
2023-03-03T13:15:10.637Z,19.37
2023-03-03T13:18:15.323Z,17.73
2023-03-03T13:20:52.306Z,13.60
2023-03-03T13:23:43.131Z,15.17
2023-03-03T13:26:39.004Z,13.47
2023-03-03T13:29:15.278Z,12.60
2023-03-03T13:36:17.871Z,14.70
2023-03-03T13:38:51.508Z,11.30
2023-03-03T13:41:28.941Z,12.90
2023-03-03T13:44:09.132Z,12.03
2023-03-03T13:46:40.047Z,14.00
2023-03-03T13:49:24.880Z,13.20
2023-03-03T13:52:01.895Z,15.83
2023-03-03T13:54:37.712Z,16.20
2023-03-03T13:57:39.326Z,13.80
2023-03-03T14:00:33.547Z,13.37
2023-03-03T14:03:28.582Z,16.63
2023-03-03T14:06:04.513Z,14.03
2023-03-03T14:08:58.640Z,12.97
2023-03-03T14:11:31.678Z,17.40
2023-03-03T14:13:58.008Z,21.80
2023-03-03T14:16:46.632Z,15.63
2023-03-03T14:19:19.769Z,13.60
2023-03-03T14:22:05.291Z,15.13
2023-03-03T14:24:31.801Z,16.03
2023-03-03T14:26:59.981Z,13.57
2023-03-03T14:29:39.375Z,21.23
2023-03-03T14:32:25.149Z,17.80
2023-03-03T14:35:00.830Z,16.73
2023-03-03T14:37:41.435Z,15.60
2023-03-03T14:40:19.849Z,16.13
2023-03-03T14:42:58.734Z,20.60
2023-03-03T14:45:41.639Z,14.27
2023-03-03T14:48:17.788Z,18.03
2023-03-03T14:51:00.232Z,14.33
2023-03-03T14:53:42.318Z,15.27
2023-03-03T14:56:33.617Z,12.20
2023-03-03T14:59:19.468Z,20.03
2023-03-03T15:01:46.724Z,18.97
2023-03-03T15:04:16.486Z,17.80
2023-03-03T15:06:50.844Z,18.80
2023-03-03T15:09:42.078Z,17.20
2023-03-03T15:12:39.954Z,20.07
2023-03-03T15:15:07.028Z,18.03
2023-03-03T15:17:54.184Z,17.27
2023-03-03T15:20:31.481Z,15.87
2023-03-03T15:23:23.787Z,17.37
2023-03-03T15:26:11.928Z,19.23
2023-03-03T15:29:09.044Z,15.93
2023-03-03T15:32:11.553Z,20.17
2023-03-03T15:34:59.198Z,18.87
2023-03-03T15:37:44.040Z,18.60
2023-03-03T15:40:37.807Z,30.13
2023-03-03T15:43:44.201Z,19.60
2023-03-03T15:46:30.917Z,22.57
2023-03-03T15:49:06.512Z,19.17
2023-03-03T15:52:21.809Z,23.30
2023-03-03T15:55:10.340Z,19.83
2023-03-03T15:57:55.602Z,19.70
2023-03-03T16:00:47.894Z,24.07
2023-03-03T16:03:25.873Z,19.23
2023-03-03T16:05:57.125Z,18.83
2023-03-03T16:08:51.718Z,19.93
2023-03-03T16:11:25.620Z,21.03
2023-03-03T16:14:15.156Z,21.57
2023-03-03T16:16:59.865Z,18.33
2023-03-03T16:19:37.077Z,21.30
2023-03-03T16:22:32.999Z,23.10
2023-03-03T16:25:18.193Z,19.97
2023-03-03T16:27:47.770Z,20.10
2023-03-03T16:30:36.027Z,20.47
2023-03-03T16:33:18.972Z,20.27
2023-03-03T16:35:51.304Z,22.53
2023-03-03T16:38:20.877Z,21.53
2023-03-03T16:40:57.807Z,24.10
2023-03-03T16:43:50.569Z,24.30
2023-03-03T16:46:41.156Z,28.07
2023-03-03T16:49:26.564Z,25.73
2023-03-03T16:52:16.317Z,24.83
2023-03-03T16:55:14.804Z,26.90
2023-03-03T16:58:19.287Z,24.97
2023-03-03T17:00:55.164Z,23.67
2023-03-03T17:03:59.130Z,24.10
2023-03-03T17:06:40.571Z,23.63
2023-03-03T17:09:06.710Z,23.23
2023-03-03T17:11:41.974Z,24.00
2023-03-03T17:14:14.311Z,21.77
2023-03-03T17:17:22.314Z,22.10
2023-03-03T17:20:07.944Z,25.53
2023-03-03T17:22:53.984Z,26.90
2023-03-03T17:25:41.272Z,24.33
2023-03-03T17:28:20.041Z,26.57
2023-03-03T17:31:11.434Z,23.67
2023-03-03T17:33:40.956Z,23.20
2023-03-03T17:36:28.938Z,24.50
2023-03-03T17:39:33.871Z,22.20
2023-03-03T17:42:06.590Z,28.67
2023-03-03T17:44:38.885Z,28.30
2023-03-03T17:47:11.686Z,27.90
2023-03-03T17:49:56.914Z,29.07
2023-03-03T17:52:38.353Z,26.17
2023-03-03T17:55:30.009Z,23.33
2023-03-03T17:58:18.156Z,29.83
2023-03-03T18:01:00.014Z,32.97
2023-03-03T18:03:44.973Z,28.00
2023-03-03T18:06:23.899Z,27.13
2023-03-03T18:09:28.566Z,36.87
2023-03-03T18:12:17.294Z,29.63
2023-03-03T18:14:43.445Z,28.00
2023-03-03T18:17:09.908Z,26.83
2023-03-03T18:20:07.500Z,34.63
2023-03-03T18:22:45.041Z,32.40
2023-03-03T18:25:14.700Z,32.00
2023-03-03T18:27:46.583Z,31.43
2023-03-03T18:30:32.514Z,43.80
2023-03-03T18:33:08.545Z,32.47
2023-03-03T18:35:39.078Z,30.53
2023-03-03T18:38:14.880Z,27.83
2023-03-03T18:41:02.987Z,28.17
2023-03-03T18:43:43.335Z,29.47
2023-03-03T18:46:22.111Z,26.53
2023-03-03T18:49:05.266Z,29.50
2023-03-03T18:52:12.462Z,27.50
2023-03-03T18:54:40.613Z,27.77
2023-03-03T18:57:16.815Z,26.40
2023-03-03T18:59:54.921Z,28.67
2023-03-03T19:02:27.663Z,24.73
2023-03-03T19:05:08.309Z,24.23
2023-03-03T19:07:41.114Z,25.27
2023-03-03T19:10:20.018Z,23.07
2023-03-03T19:12:46.995Z,21.43
2023-03-03T19:15:28.998Z,22.70
2023-03-03T19:18:18.005Z,20.83
2023-03-03T19:21:37.428Z,20.60
2023-03-03T19:24:43.804Z,24.53
2023-03-03T19:27:33.267Z,20.93
2023-03-03T19:33:52.907Z,18.60
2023-03-03T19:36:54.314Z,21.57
2023-03-03T19:39:21.774Z,25.93
2023-03-03T19:41:59.874Z,23.63
2023-03-03T19:44:40.527Z,26.47
2023-03-03T19:47:31.032Z,29.03
2023-03-03T19:50:23.148Z,28.00
2023-03-03T19:53:02.091Z,30.10
2023-03-03T19:56:12.684Z,24.90
2023-03-03T19:59:20.028Z,29.07
2023-03-03T20:02:18.533Z,32.77
2023-03-03T20:05:15.652Z,34.23
2023-03-03T20:07:58.049Z,31.07
2023-03-03T20:10:33.602Z,28.27
2023-03-03T20:13:39.915Z,31.50
2023-03-03T20:16:27.060Z,34.63
2023-03-03T20:19:08.794Z,33.47
2023-03-03T20:22:11.465Z,41.60
2023-03-03T20:25:41.540Z,33.37
2023-03-03T20:28:44.408Z,30.87
2023-03-03T20:31:42.191Z,22.77
2023-03-03T20:34:13.579Z,26.47
2023-03-03T20:36:55.379Z,30.40
2023-03-03T20:39:47.223Z,23.50
2023-03-03T20:42:38.050Z,24.87
2023-03-03T20:45:31.517Z,26.27
2023-03-03T20:48:26.072Z,25.90
2023-03-03T20:50:55.563Z,25.93
2023-03-03T20:53:34.276Z,23.80
2023-03-03T20:56:09.853Z,26.33
2023-03-03T20:58:54.926Z,23.93
2023-03-03T21:02:12.070Z,22.33
2023-03-03T21:04:41.794Z,26.50
2023-03-03T21:07:24.267Z,22.33
2023-03-03T21:10:10.357Z,24.50
2023-03-03T21:12:37.396Z,26.57
2023-03-03T21:15:19.391Z,26.20
2023-03-03T21:17:46.635Z,21.83
2023-03-03T21:20:31.226Z,24.37
2023-03-03T21:22:59.684Z,26.70
2023-03-03T21:25:53.009Z,22.53
2023-03-03T21:28:28.687Z,24.90
2023-03-03T21:31:00.641Z,25.03
2023-03-03T21:33:50.218Z,23.63
2023-03-03T21:36:36.783Z,21.57
2023-03-03T21:39:25.393Z,22.33
2023-03-03T21:41:55.950Z,23.00
2023-03-03T21:44:32.127Z,24.60
2023-03-03T21:46:59.039Z,25.63
2023-03-03T21:49:32.602Z,26.07
2023-03-03T21:52:01.905Z,28.67
2023-03-03T21:54:28.753Z,24.43
2023-03-03T21:56:57.652Z,25.57
2023-03-03T21:59:24.478Z,24.70
2023-03-03T22:01:53.611Z,27.87
2023-03-03T22:04:20.371Z,28.10
2023-03-03T22:06:50.743Z,24.83
2023-03-03T22:09:24.545Z,24.80
2023-03-03T22:11:50.866Z,23.23
2023-03-03T22:14:20.278Z,24.77
2023-03-03T22:16:52.456Z,26.67
2023-03-03T22:19:21.805Z,22.30
2023-03-03T22:21:49.543Z,23.43
2023-03-03T22:24:26.681Z,23.67
2023-03-03T22:27:13.710Z,21.83
2023-03-03T22:29:40.218Z,20.50
2023-03-03T22:32:14.299Z,24.43
2023-03-03T22:34:42.611Z,22.17
2023-03-03T22:37:09.527Z,17.40
2023-03-03T22:39:38.891Z,20.00
2023-03-03T22:42:08.033Z,15.90
2023-03-03T22:44:45.841Z,17.83
2023-03-03T22:47:15.059Z,17.23
2023-03-03T22:49:47.747Z,15.63
2023-03-03T22:52:27.365Z,17.13
2023-03-03T22:54:53.912Z,16.13
2023-03-03T22:57:23.839Z,17.70
2023-03-03T22:59:50.732Z,17.00
2023-03-03T23:02:20.106Z,16.33
2023-03-03T23:04:46.766Z,15.83
2023-03-03T23:07:19.023Z,15.40
2023-03-03T23:09:45.564Z,15.90
2023-03-03T23:12:13.157Z,18.57
2023-03-03T23:14:43.704Z,17.30
2023-03-03T23:17:10.159Z,15.97
2023-03-03T23:19:36.568Z,15.73
2023-03-03T23:22:02.765Z,24.33
2023-03-03T23:24:29.614Z,13.93
2023-03-03T23:26:57.651Z,14.67
2023-03-03T23:29:26.598Z,16.73
2023-03-03T23:31:52.874Z,15.20
2023-03-03T23:34:19.766Z,18.03
2023-03-03T23:36:48.392Z,14.03
2023-03-03T23:39:15.945Z,17.37
2023-03-03T23:41:42.202Z,18.80
2023-03-03T23:44:08.971Z,17.83
2023-03-03T23:46:39.112Z,15.90
2023-03-03T23:49:06.223Z,16.43
2023-03-03T23:51:35.987Z,13.43
2023-03-03T23:54:02.515Z,20.87
2023-03-03T23:56:31.048Z,16.67
2023-03-03T23:59:05.053Z,18.83
